Time;durP1;ratioP1;P1;durP2;ratioP2;P2;SDS_P1;SDS_P2;PMS_P1;PMS_P2;Temp;Humidity;BMP_temperature;BMP_pressure;BME280_temperature;BME280_humidity;BME280_pressure;Samples;Min_cycle;Max_cycle;Signal;HPM_P1;HPM_P2
2021/10/24 00:02:14;;;;;;;2.67;2.17;;;4.10;99.90;3.30;98153.00;;;;5076353;28;20442;-60
2021/10/24 00:05:04;;;;;;;4.90;2.27;;;4.00;99.90;3.30;98141.00;;;;5066397;28;20434;-61
2021/10/24 00:07:53;;;;;;;5.73;2.50;;;4.00;99.90;3.30;98142.00;;;;5079431;28;20430;-61
2021/10/24 00:10:43;;;;;;;3.50;2.10;;;3.90;99.90;3.00;98145.00;;;;5067390;28;20469;-61
2021/10/24 00:13:32;;;;;;;3.10;2.20;;;3.90;99.90;3.20;98144.00;;;;5075441;28;20431;-61
2021/10/24 00:16:21;;;;;;;2.67;2.43;;;3.90;99.90;3.20;98155.00;;;;5073930;28;20453;-61
2021/10/24 00:19:10;;;;;;;5.77;2.87;;;3.80;99.90;3.30;98147.00;;;;5068654;28;20430;-60
2021/10/24 00:21:59;;;;;;;4.07;2.37;;;3.90;99.90;3.10;98145.00;;;;5079604;28;20855;-60
2021/10/24 00:24:47;;;;;;;4.03;2.60;;;3.80;99.90;2.80;98137.00;;;;5066814;28;20446;-60
2021/10/24 00:27:38;;;;;;;2.00;1.90;;;3.70;99.90;2.90;98146.00;;;;5073950;28;20437;-59
2021/10/24 00:30:27;;;;;;;3.03;2.10;;;3.70;99.90;3.00;98152.00;;;;5069525;28;20433;-59
2021/10/24 00:33:16;;;;;;;4.27;2.70;;;3.60;99.90;3.00;98143.00;;;;5079975;28;20437;-61
2021/10/24 00:36:05;;;;;;;4.30;1.87;;;3.60;99.90;2.90;98142.00;;;;5065498;28;20466;-60
2021/10/24 00:38:54;;;;;;;2.70;2.10;;;3.50;99.90;2.90;98147.00;;;;5073897;28;20433;-61
2021/10/24 00:41:43;;;;;;;3.47;3.17;;;3.50;99.90;2.70;98147.00;;;;5070023;28;20450;-61
2021/10/24 00:44:34;;;;;;;2.90;2.03;;;3.50;99.90;2.90;98137.00;;;;5078743;28;20448;-60
2021/10/24 00:47:23;;;;;;;3.53;2.33;;;3.50;99.90;3.00;98150.00;;;;5076887;28;20430;-61
2021/10/24 00:50:12;;;;;;;2.80;2.20;;;3.50;99.90;3.00;98149.00;;;;5065305;28;20434;-60
2021/10/24 00:53:02;;;;;;;6.50;2.30;;;3.50;99.90;3.00;98153.00;;;;5079511;28;20425;-59
2021/10/24 00:55:51;;;;;;;3.20;2.00;;;3.50;99.90;2.90;98137.00;;;;5066394;28;20466;-61
2021/10/24 00:58:41;;;;;;;4.17;2.10;;;3.50;99.90;2.70;98139.00;;;;5075805;28;20417;-60
2021/10/24 01:01:31;;;;;;;2.90;2.60;;;2.70;99.90;2.60;98147.00;;;;5066879;28;20447;-60
2021/10/24 01:04:20;;;;;;;6.33;2.40;;;3.40;99.90;2.60;98142.00;;;;5067476;28;20990;-59
2021/10/24 01:07:09;;;;;;;3.00;2.73;;;3.30;99.90;2.40;98142.00;;;;5072566;28;20955;-61
2021/10/24 01:09:57;;;;;;;8.13;2.20;;;3.30;99.90;2.40;98137.00;;;;5074094;28;21253;-61
2021/10/24 01:12:49;;;;;;;2.10;1.90;;;3.20;99.90;2.30;98137.00;;;;5072724;28;20789;-61
2021/10/24 01:15:37;;;;;;;2.67;2.47;;;3.10;99.90;2.30;98120.00;;;;5069994;28;20470;-60
2021/10/24 01:18:28;;;;;;;3.53;2.23;;;3.10;99.90;2.30;98135.00;;;;5076837;28;20425;-60
2021/10/24 01:21:19;;;;;;;2.57;2.20;;;3.00;99.90;2.30;98127.00;;;;5076327;28;20443;-60
2021/10/24 01:24:07;;;;;;;6.37;1.73;;;3.00;99.90;2.30;98121.00;;;;5071170;28;20939;-62
2021/10/24 01:26:57;;;;;;;2.47;2.20;;;2.90;99.90;2.20;98117.00;;;;5071543;28;20576;-60
2021/10/24 01:29:46;;;;;;;2.17;2.00;;;2.90;99.90;2.00;98117.00;;;;5074236;28;20434;-61
2021/10/24 01:32:35;;;;;;;5.30;1.97;;;2.90;99.90;2.10;98117.00;;;;5073126;28;20446;-62
2021/10/24 01:35:24;;;;;;;3.33;1.97;;;2.80;99.90;2.10;98106.00;;;;5067000;28;20426;-63
2021/10/24 01:38:14;;;;;;;2.70;2.27;;;2.80;99.90;2.00;98102.00;;;;5079114;28;20429;-62
2021/10/24 01:41:06;;;;;;;2.83;2.47;;;2.70;99.90;1.70;98099.00;;;;5064984;28;20446;-62
2021/10/24 01:43:56;;;;;;;5.17;2.87;;;2.70;99.90;1.60;98117.00;;;;5072972;28;20664;-62
2021/10/24 01:46:44;;;;;;;2.87;2.23;;;2.60;99.90;1.70;98118.00;;;;5067199;28;20446;-60
2021/10/24 01:49:33;;;;;;;3.03;1.70;;;2.40;99.90;1.80;98112.00;;;;5065029;28;20425;-59
2021/10/24 01:52:22;;;;;;;1.97;1.70;;;2.50;99.90;1.60;98104.00;;;;5076196;28;20668;-63
2021/10/24 01:55:14;;;;;;;5.47;2.07;;;2.40;99.90;1.50;98105.00;;;;5078359;28;20418;-61
2021/10/24 01:58:04;;;;;;;2.30;2.10;;;2.40;99.90;1.60;98108.00;;;;5068986;28;20801;-61
2021/10/24 02:00:54;;;;;;;4.83;1.90;;;2.40;99.90;1.60;98100.00;;;;5071831;28;20771;-62
2021/10/24 02:03:42;;;;;;;3.97;2.50;;;2.40;99.90;1.60;98117.00;;;;5074504;28;20438;-61
2021/10/24 02:06:31;;;;;;;3.27;2.00;;;2.30;99.90;1.50;98111.00;;;;5069779;28;20814;-60
2021/10/24 02:09:20;;;;;;;2.73;1.87;;;2.30;99.90;1.30;98112.00;;;;5069280;28;20426;-60
2021/10/24 02:12:10;;;;;;;2.13;1.93;;;2.30;99.90;1.40;98105.00;;;;5078410;28;20442;-62
2021/10/24 02:14:59;;;;;;;6.23;2.67;;;2.30;99.90;1.60;98108.00;;;;5075639;28;20419;-61
2021/10/24 02:17:48;;;;;;;3.20;2.70;;;2.20;99.90;1.70;98112.00;;;;5066177;28;21018;-61
2021/10/24 02:20:37;;;;;;;2.23;1.93;;;2.30;99.90;1.40;98111.00;;;;5080847;28;20433;-61
2021/10/24 02:23:26;;;;;;;4.13;2.10;;;2.20;99.90;1.40;98108.00;;;;5076453;28;20432;-61
2021/10/24 02:26:15;;;;;;;4.40;2.43;;;2.20;99.90;1.60;98121.00;;;;5075996;28;20433;-60
2021/10/24 02:29:05;;;;;;;2.87;2.23;;;2.30;99.90;1.60;98121.00;;;;5077209;28;20798;-61
2021/10/24 02:31:54;;;;;;;4.13;2.67;;;2.30;99.90;1.70;98125.00;;;;5065577;28;20434;-61
2021/10/24 02:34:43;;;;;;;2.20;2.00;;;2.20;99.90;1.70;98114.00;;;;5075915;28;20804;-60
2021/10/24 02:37:32;;;;;;;3.30;2.23;;;2.20;99.90;1.40;98117.00;;;;5076249;28;20468;-60
2021/10/24 02:40:21;;;;;;;2.37;2.13;;;2.30;99.90;1.10;98109.00;;;;5068975;28;20932;-61
2021/10/24 02:43:10;;;;;;;3.70;2.37;;;2.10;99.90;1.00;98111.00;;;;5067215;28;20433;-61
2021/10/24 02:46:00;;;;;;;2.70;2.10;;;2.00;99.90;1.00;98115.00;;;;5077648;28;20425;-59
2021/10/24 02:48:49;;;;;;;3.20;2.40;;;1.90;99.90;1.00;98126.00;;;;5074984;28;20417;-59
2021/10/24 02:51:38;;;;;;;4.60;2.60;;;1.90;99.90;1.00;98119.00;;;;5069784;28;20453;-61
2021/10/24 02:54:27;;;;;;;2.83;2.40;;;1.90;99.90;1.20;98128.00;;;;5079749;28;20626;-60
2021/10/24 02:57:16;;;;;;;3.83;3.23;;;1.90;99.90;1.20;98129.00;;;;5067397;28;20846;-61
2021/10/24 03:00:09;;;;;;;2.73;2.30;;;1.20;99.90;1.40;98122.00;;;;5067217;28;20415;-59
2021/10/24 03:02:59;;;;;;;3.03;2.40;;;2.00;99.90;1.50;98123.00;;;;5070533;28;20805;-61
2021/10/24 03:05:48;;;;;;;3.53;2.07;;;2.00;99.90;1.40;98113.00;;;;5073405;28;20431;-61
2021/10/24 03:08:36;;;;;;;2.87;2.33;;;2.00;99.90;1.20;98132.00;;;;5075999;28;20426;-61
2021/10/24 03:11:25;;;;;;;3.27;2.80;;;2.10;99.90;1.30;98123.00;;;;5067425;28;20775;-61
2021/10/24 03:14:14;;;;;;;3.03;2.40;;;2.00;99.90;1.20;98122.00;;;;5080320;28;20967;-61
2021/10/24 03:17:04;;;;;;;7.13;3.03;;;2.00;99.90;1.20;98127.00;;;;5066653;28;20470;-60
2021/10/24 03:19:54;;;;;;;3.27;2.53;;;1.90;99.90;1.40;98132.00;;;;5066896;28;20937;-61
2021/10/24 03:22:42;;;;;;;2.50;2.30;;;1.90;99.90;1.40;98126.00;;;;5072693;28;20445;-61
2021/10/24 03:25:31;;;;;;;2.40;2.20;;;1.90;99.90;1.30;98126.00;;;;5072504;28;20496;-60
2021/10/24 03:28:20;;;;;;;2.70;1.90;;;2.00;99.90;1.40;98139.00;;;;5074976;28;20415;-60
2021/10/24 03:31:09;;;;;;;2.00;1.90;;;2.00;99.90;1.20;98141.00;;;;5074553;28;20446;-59
2021/10/24 03:33:58;;;;;;;2.77;2.57;;;2.00;99.90;0.90;98133.00;;;;5068324;28;20427;-61
2021/10/24 03:36:48;;;;;;;4.70;2.83;;;1.90;99.90;0.90;98140.00;;;;5080957;28;20491;-61
2021/10/24 03:39:37;;;;;;;1.93;1.83;;;1.80;99.90;0.90;98135.00;;;;5066941;28;20440;-61
2021/10/24 03:42:26;;;;;;;3.17;2.50;;;1.80;99.90;0.90;98140.00;;;;5074442;28;20790;-61
2021/10/24 03:45:15;;;;;;;5.30;2.70;;;1.70;99.90;1.00;98139.00;;;;5067601;28;20931;-61
2021/10/24 03:48:04;;;;;;;2.13;1.93;;;1.70;99.90;0.80;98133.00;;;;5081563;28;20817;-61
2021/10/24 03:50:53;;;;;;;2.43;2.23;;;1.70;99.90;0.60;98139.00;;;;5074355;28;20443;-61
2021/10/24 03:53:43;;;;;;;3.83;2.23;;;1.60;99.90;0.60;98132.00;;;;5073894;28;20414;-61
2021/10/24 03:56:32;;;;;;;2.20;1.97;;;1.50;99.90;0.80;98130.00;;;;5066930;28;20819;-61
2021/10/24 03:59:21;;;;;;;3.80;2.30;;;1.50;99.90;0.80;98135.00;;;;5078890;28;20432;-61
2021/10/24 04:02:10;;;;;;;2.30;2.07;;;1.60;99.90;0.50;98127.00;;;;5066165;28;20446;-62
2021/10/24 04:04:59;;;;;;;2.07;1.93;;;1.50;99.90;0.40;98128.00;;;;5072937;28;20791;-60
2021/10/24 04:07:48;;;;;;;6.67;3.10;;;1.30;99.90;0.40;98124.00;;;;5068307;28;20799;-61
2021/10/24 04:10:38;;;;;;;4.30;2.17;;;1.30;99.90;0.10;98116.00;;;;5079583;28;20496;-61
2021/10/24 04:13:27;;;;;;;3.13;2.17;;;1.30;99.90;0.20;98118.00;;;;5075392;28;20422;-60
2021/10/24 04:16:16;;;;;;;1.77;1.63;;;1.20;99.90;0.30;98117.00;;;;5065724;28;20932;-61
2021/10/24 04:19:05;;;;;;;3.17;2.50;;;1.20;99.90;0.40;98122.00;;;;5079346;28;20430;-61
2021/10/24 04:21:54;;;;;;;3.03;2.60;;;1.20;99.90;0.50;98127.00;;;;5066019;28;20438;-62
2021/10/24 04:24:43;;;;;;;4.60;3.00;;;1.20;99.90;0.50;98121.00;;;;5074479;28;20428;-61
2021/10/24 04:27:33;;;;;;;3.27;2.27;;;1.30;99.90;0.60;98125.00;;;;5072399;28;20433;-59
2021/10/24 04:30:22;;;;;;;3.75;2.60;;;1.30;99.90;0.50;98123.00;;;;5070268;28;20989;-61
2021/10/24 04:33:11;;;;;;;3.50;2.13;;;1.30;99.90;0.60;98116.00;;;;5077820;28;20782;-62
2021/10/24 04:35:59;;;;;;;2.20;2.00;;;1.20;99.90;0.50;98120.00;;;;5077242;28;20809;-61
2021/10/24 04:38:48;;;;;;;5.30;2.50;;;1.20;99.90;0.30;98117.00;;;;5070635;28;20472;-61
2021/10/24 04:41:38;;;;;;;1.60;1.50;;;1.20;99.90;0.30;98121.00;;;;5071552;28;20436;-61
2021/10/24 04:44:28;;;;;;;2.80;2.60;;;1.20;99.90;0.30;98104.00;;;;5076987;28;20422;-61
2021/10/24 04:47:17;;;;;;;2.97;2.63;;;1.20;99.90;0.20;98116.00;;;;5077721;28;20437;-61
2021/10/24 04:50:08;;;;;;;6.90;2.73;;;1.10;99.90;-0.10;98116.00;;;;5080351;28;20818;-62
2021/10/24 04:52:57;;;;;;;3.43;2.53;;;1.00;99.90;-0.20;98118.00;;;;5066888;28;20940;-62
2021/10/24 04:55:46;;;;;;;2.50;2.30;;;0.80;99.90;0.00;98113.00;;;;5073513;28;20426;-62
2021/10/24 04:58:35;;;;;;;2.43;2.00;;;0.80;99.90;0.10;98115.00;;;;5073458;28;20805;-64
2021/10/24 05:01:25;;;;;;;2.67;2.37;;;0.80;99.90;0.20;98116.00;;;;5067176;28;20453;-60
2021/10/24 05:04:15;;;;;;;2.40;2.20;;;0.90;99.90;0.10;98115.00;;;;5079575;28;20748;-61
2021/10/24 05:07:04;;;;;;;2.90;2.50;;;0.80;99.90;0.10;98112.00;;;;5064404;28;20422;-62
2021/10/24 05:09:53;;;;;;;3.03;2.60;;;0.90;99.90;0.20;98118.00;;;;5065006;28;20419;-62
2021/10/24 05:12:42;;;;;;;3.63;1.93;;;1.00;99.90;0.50;98120.00;;;;5069279;28;20453;-61
2021/10/24 05:15:31;;;;;;;3.27;1.83;;;1.00;99.90;0.30;98121.00;;;;5071822;28;20972;-62
2021/10/24 05:18:21;;;;;;;3.80;2.77;;;1.10;99.90;0.50;98120.00;;;;5075647;28;20458;-62
2021/10/24 05:21:10;;;;;;;5.67;2.60;;;1.20;99.90;0.60;98118.00;;;;5064923;28;20984;-62
2021/10/24 05:23:59;;;;;;;6.43;3.00;;;1.20;99.90;0.60;98130.00;;;;5079804;28;20426;-61
2021/10/24 05:26:48;;;;;;;2.23;2.03;;;1.20;99.90;0.60;98125.00;;;;5077912;28;20669;-62
2021/10/24 05:29:37;;;;;;;3.00;2.70;;;1.30;99.90;0.50;98131.00;;;;5076232;28;20438;-61
2021/10/24 05:32:27;;;;;;;6.43;4.10;;;1.30;99.90;0.40;98131.00;;;;5069579;28;20471;-62
2021/10/24 05:35:17;;;;;;;4.13;2.80;;;1.20;99.90;0.10;98123.00;;;;5069711;28;20937;-61
2021/10/24 05:38:06;;;;;;;2.93;2.47;;;1.10;99.90;0.20;98126.00;;;;5077524;28;20477;-63
2021/10/24 05:40:55;;;;;;;3.97;2.43;;;1.10;99.90;0.40;98135.00;;;;5076316;28;20890;-62
2021/10/24 05:43:44;;;;;;;3.93;2.17;;;1.10;99.90;0.50;98142.00;;;;5070278;28;20925;-60
2021/10/24 05:46:32;;;;;;;2.77;2.43;;;1.10;99.90;0.50;98136.00;;;;5069377;28;20468;-62
2021/10/24 05:49:22;;;;;;;2.97;2.67;;;1.10;99.90;0.40;98131.00;;;;5065538;28;20419;-60
2021/10/24 05:52:12;;;;;;;4.57;2.90;;;1.20;99.90;0.40;98149.00;;;;5063117;28;20450;-62
2021/10/24 05:55:01;;;;;;;3.37;2.90;;;1.20;99.90;0.60;98147.00;;;;5078803;28;20422;-63
2021/10/24 05:57:50;;;;;;;3.67;3.33;;;1.20;99.90;0.70;98148.00;;;;5067043;28;20493;-60
2021/10/24 06:00:38;;;;;;;6.20;3.07;;;1.30;99.90;0.90;98156.00;;;;5073419;28;20419;-59
2021/10/24 06:03:27;;;;;;;5.47;2.67;;;1.40;99.90;0.90;98152.00;;;;5072979;28;20444;-62
2021/10/24 06:06:16;;;;;;;6.37;2.60;;;1.50;99.90;0.90;98149.00;;;;5066026;28;20438;-62
2021/10/24 06:09:07;;;;;;;3.10;2.80;;;1.50;99.90;1.00;98157.00;;;;5081792;28;20789;-61
2021/10/24 06:11:59;;;;;;;5.00;2.73;;;1.60;99.90;1.10;98154.00;;;;5068995;28;20442;-62
2021/10/24 06:14:48;;;;;;;2.67;2.37;;;1.70;99.90;1.10;98158.00;;;;5075908;28;20805;-60
2021/10/24 06:17:37;;;;;;;4.22;2.97;;;1.70;99.90;1.30;98162.00;;;;5070073;28;20395;-60
2021/10/24 06:20:26;;;;;;;5.60;2.83;;;1.80;99.90;1.50;98162.00;;;;5082009;28;20245;-62
2021/10/24 06:23:15;;;;;;;2.70;2.45;;;1.90;99.90;1.50;98162.00;;;;5067550;28;20387;-61
2021/10/24 06:26:05;;;;;;;4.70;2.60;;;2.00;99.90;1.60;98167.00;;;;5081726;28;20208;-61
2021/10/24 06:28:54;;;;;;;3.33;2.73;;;2.10;99.90;1.70;98174.00;;;;5081879;28;20431;-62
2021/10/24 06:31:43;;;;;;;2.70;2.43;;;2.20;99.90;1.80;98167.00;;;;5067765;28;20850;-62
2021/10/24 06:34:32;;;;;;;3.40;2.95;;;2.30;99.90;2.00;98168.00;;;;5077095;28;20380;-60
2021/10/24 06:37:21;;;;;;;3.47;2.83;;;2.50;99.90;2.40;98166.00;;;;5068447;28;20388;-61
2021/10/24 06:40:11;;;;;;;2.57;1.80;;;2.60;99.90;2.40;98178.00;;;;5082308;28;20211;-60
2021/10/24 06:43:01;;;;;;;4.00;3.47;;;2.80;99.90;2.50;98181.00;;;;5068040;28;20430;-61
2021/10/24 06:45:50;;;;;;;3.23;2.23;;;2.90;99.90;2.50;98183.00;;;;5077079;28;20414;-61
2021/10/24 06:48:39;;;;;;;2.30;1.93;;;3.00;99.90;2.80;98193.00;;;;5074991;28;20429;-60
2021/10/24 06:51:28;;;;;;;2.33;2.10;;;3.10;99.90;2.80;98200.00;;;;5071648;28;20465;-59
2021/10/24 06:54:16;;;;;;;3.77;2.37;;;3.20;99.90;3.10;98194.00;;;;5081093;28;20428;-59
2021/10/24 06:57:05;;;;;;;3.30;2.30;;;3.40;99.90;3.10;98187.00;;;;5079117;28;20418;-59
2021/10/24 06:59:55;;;;;;;3.70;2.77;;;3.50;99.90;3.40;98204.00;;;;5072983;28;20819;-61
2021/10/24 07:02:44;;;;;;;2.70;2.50;;;3.60;99.90;3.70;98216.00;;;;5072186;28;20435;-61
2021/10/24 07:05:34;;;;;;;4.43;2.40;;;3.70;99.90;3.70;98223.00;;;;5078596;28;20437;-61
2021/10/24 07:08:22;;;;;;;3.93;2.80;;;3.90;99.90;4.00;98213.00;;;;5079045;28;20430;-60
2021/10/24 07:11:11;;;;;;;3.57;2.63;;;4.10;99.90;4.10;98213.00;;;;5071803;28;20800;-61
2021/10/24 07:14:00;;;;;;;5.20;2.97;;;4.30;99.90;4.20;98217.00;;;;5074291;28;20626;-61
2021/10/24 07:16:50;;;;;;;7.67;3.23;;;4.40;99.90;4.40;98220.00;;;;5079814;28;20428;-60
2021/10/24 07:19:40;;;;;;;5.20;3.33;;;4.50;99.90;4.50;98232.00;;;;5079931;28;20469;-61
2021/10/24 07:22:28;;;;;;;4.43;3.13;;;4.70;99.90;4.70;98231.00;;;;5083417;28;20215;-60
2021/10/24 07:25:18;;;;;;;4.17;3.40;;;4.80;99.90;4.90;98237.00;;;;5089922;28;20191;-61
2021/10/24 07:28:07;;;;;;;6.27;3.23;;;4.90;99.90;5.00;98241.00;;;;5098702;28;20218;-60
2021/10/24 07:30:56;;;;;;;4.97;3.30;;;5.00;99.90;5.10;98245.00;;;;5096254;28;20223;-61
2021/10/24 07:33:46;;;;;;;7.40;3.87;;;5.20;99.90;5.20;98232.00;;;;5089634;28;20211;-61
2021/10/24 07:36:35;;;;;;;6.07;3.73;;;5.30;99.90;5.20;98239.00;;;;5078365;28;20199;-60
2021/10/24 07:39:24;;;;;;;6.13;4.50;;;5.40;99.90;5.10;98231.00;;;;5067773;28;20223;-62
2021/10/24 07:42:12;;;;;;;11.73;4.60;;;5.50;99.90;5.20;98235.00;;;;5073150;28;20954;-60
2021/10/24 07:45:01;;;;;;;5.77;3.87;;;5.60;99.90;5.10;98237.00;;;;5070858;28;20200;-60
2021/10/24 07:47:51;;;;;;;4.33;3.93;;;5.60;99.90;5.10;98234.00;;;;5080277;28;20200;-61
2021/10/24 07:50:43;;;;;;;11.87;4.37;;;5.60;99.90;5.00;98229.00;;;;5067560;28;20211;-62
2021/10/24 07:53:31;;;;;;;4.10;3.43;;;5.60;99.90;5.20;98236.00;;;;5072836;28;20210;-60
2021/10/24 07:56:21;;;;;;;7.43;4.10;;;5.60;99.90;5.20;98247.00;;;;5071226;28;20211;-62
2021/10/24 07:59:10;;;;;;;9.10;4.10;;;5.60;99.90;5.40;98232.00;;;;5079285;28;20226;-60
2021/10/24 08:01:59;;;;;;;5.13;3.30;;;5.70;99.90;5.60;98259.00;;;;5078297;28;20224;-62
2021/10/24 08:04:49;;;;;;;4.07;3.10;;;5.70;99.90;5.70;98254.00;;;;5072541;28;20211;-60
2021/10/24 08:07:40;;;;;;;5.70;4.30;;;5.80;99.90;5.80;98252.00;;;;5080139;28;20204;-60
2021/10/24 08:10:29;;;;;;;4.90;3.50;;;5.90;99.90;5.70;98251.00;;;;5068406;28;20208;-61
2021/10/24 08:13:18;;;;;;;6.77;3.57;;;6.00;99.90;5.70;98254.00;;;;5073081;28;20409;-61
2021/10/24 08:16:07;;;;;;;4.27;3.87;;;6.00;99.90;5.80;98251.00;;;;5075621;28;20214;-61
2021/10/24 08:18:56;;;;;;;4.67;3.93;;;6.10;99.90;6.10;98255.00;;;;5071773;28;20235;-62
2021/10/24 08:21:46;;;;;;;9.27;4.30;;;6.20;99.90;5.90;98245.00;;;;5078462;28;20220;-61
2021/10/24 08:24:36;;;;;;;5.90;4.23;;;6.30;99.90;5.90;98260.00;;;;5082004;28;20196;-61
2021/10/24 08:27:25;;;;;;;8.83;5.03;;;6.30;99.90;5.90;98266.00;;;;5072840;28;20195;-61
2021/10/24 08:30:14;;;;;;;4.67;4.17;;;6.30;99.90;5.90;98261.00;;;;5068922;28;20211;-61
2021/10/24 08:33:03;;;;;;;8.37;4.27;;;6.30;99.90;6.20;98263.00;;;;5076498;28;20234;-61
2021/10/24 08:35:51;;;;;;;5.70;3.97;;;6.40;99.90;6.50;98272.00;;;;5078347;28;20211;-61
2021/10/24 08:38:43;;;;;;;6.80;4.13;;;6.40;99.90;6.40;98273.00;;;;5071784;28;20207;-61
2021/10/24 08:41:33;;;;;;;6.40;4.30;;;6.50;99.90;6.30;98279.00;;;;5071068;28;20224;-62
2021/10/24 08:44:24;;;;;;;9.23;4.33;;;6.60;99.90;6.20;98271.00;;;;5066729;28;20585;-62
2021/10/24 08:47:13;;;;;;;4.80;4.07;;;6.60;99.90;6.40;98266.00;;;;5066725;28;20208;-60
2021/10/24 08:50:02;;;;;;;6.13;4.20;;;6.70;99.90;6.50;98268.00;;;;5079472;28;20219;-62
2021/10/24 08:52:53;;;;;;;7.67;4.97;;;6.70;99.90;6.60;98266.00;;;;5065833;28;20200;-61
2021/10/24 08:55:42;;;;;;;6.73;4.30;;;6.70;99.90;6.60;98268.00;;;;5086308;28;20191;-61
2021/10/24 08:58:32;;;;;;;5.60;4.77;;;6.80;99.90;6.60;98274.00;;;;5097003;28;20206;-62
2021/10/24 09:01:22;;;;;;;4.40;3.93;;;6.90;99.90;6.80;98271.00;;;;5079619;28;20238;-62
2021/10/24 09:04:13;;;;;;;5.17;3.87;;;6.90;99.90;6.80;98287.00;;;;5079845;28;20199;-62
2021/10/24 09:07:04;;;;;;;7.13;4.03;;;7.00;99.90;6.70;98280.00;;;;5066136;28;20685;-62
2021/10/24 09:09:53;;;;;;;6.70;4.47;;;7.00;99.90;6.80;98280.00;;;;5073614;28;20207;-62
2021/10/24 09:13:03;;;;;;;5.80;4.80;;;7.00;99.90;6.60;98272.00;;;;5067513;28;20223;-62
2021/10/24 09:15:59;;;;;;;6.37;4.63;;;7.00;99.90;6.60;98264.00;;;;5075349;28;20204;-62
2021/10/24 09:18:49;;;;;;;6.37;4.40;;;7.00;99.90;6.80;98268.00;;;;5079302;28;20682;-61
2021/10/24 09:21:38;;;;;;;5.20;4.53;;;7.00;99.90;6.80;98273.00;;;;5074988;28;20697;-60
2021/10/24 09:24:27;;;;;;;3.97;3.43;;;7.00;99.90;6.80;98283.00;;;;5066231;28;20197;-62
2021/10/24 09:27:16;;;;;;;11.87;5.93;;;7.10;99.90;6.80;98288.00;;;;5066881;28;20196;-62
2021/10/24 09:30:10;;;;;;;10.37;7.07;;;7.10;99.90;6.90;98289.00;;;;5082964;28;20206;-62
2021/10/24 09:33:03;;;;;;;12.83;6.70;;;7.10;99.90;7.10;98285.00;;;;5093896;28;20207;-62
2021/10/24 09:35:52;;;;;;;7.23;4.60;;;7.20;99.90;7.30;98287.00;;;;5064692;28;20203;-62
2021/10/24 09:38:43;;;;;;;6.70;4.20;;;7.30;99.90;7.30;98285.00;;;;5079716;28;20199;-62
2021/10/24 09:41:32;;;;;;;17.73;7.47;;;7.30;99.90;7.60;98282.00;;;;5064428;28;20231;-62
2021/10/24 09:44:22;;;;;;;8.87;5.50;;;7.50;99.90;7.60;98281.00;;;;5074767;28;20307;-62
2021/10/24 09:47:11;;;;;;;7.40;3.87;;;7.60;99.90;7.60;98272.00;;;;5080093;28;20198;-62
2021/10/24 09:50:01;;;;;;;9.17;5.97;;;7.70;99.90;7.70;98282.00;;;;5087572;28;20212;-62
2021/10/24 09:52:50;;;;;;;9.83;6.10;;;7.70;99.90;7.90;98274.00;;;;5071154;28;20211;-62
2021/10/24 09:55:40;;;;;;;4.67;4.27;;;7.80;99.90;8.10;98274.00;;;;5073886;28;20199;-61
2021/10/24 09:58:30;;;;;;;10.53;4.43;;;7.90;99.90;8.10;98275.00;;;;5072915;28;20670;-62
2021/10/24 10:01:21;;;;;;;5.97;4.00;;;8.00;99.90;8.30;98280.00;;;;5071242;28;20227;-61
2021/10/24 10:04:12;;;;;;;8.00;4.73;;;8.10;99.90;8.40;98285.00;;;;5084419;28;20693;-61
2021/10/24 10:07:02;;;;;;;10.33;4.90;;;8.30;99.90;8.30;98279.00;;;;5096992;28;20217;-61
2021/10/24 10:09:51;;;;;;;5.73;4.27;;;8.30;99.90;8.40;98270.00;;;;5085340;28;20856;-62
2021/10/24 10:12:45;;;;;;;4.17;3.63;;;8.40;99.90;8.60;98285.00;;;;5086760;28;20216;-62
2021/10/24 10:15:41;;;;;;;7.43;3.83;;;8.50;99.90;8.70;98271.00;;;;5074046;28;20207;-61
2021/10/24 10:18:29;;;;;;;6.60;3.93;;;8.60;99.90;8.80;98284.00;;;;5066728;28;20204;-62
2021/10/24 10:21:28;;;;;;;5.23;3.07;;;8.70;99.90;8.90;98284.00;;;;5064572;28;20243;-62
2021/10/24 10:24:46;;;;;;;7.53;2.60;;;8.70;99.90;8.90;98283.00;;;;5061808;28;20542;-62
2021/10/24 10:27:44;;;;;;;2.90;2.47;;;8.80;99.90;8.90;98279.00;;;;5070095;28;20199;-62
2021/10/24 10:30:41;;;;;;;6.30;3.10;;;8.90;99.90;9.20;98261.00;;;;5069679;28;20218;-62
2021/10/24 10:33:34;;;;;;;8.30;2.97;;;9.00;99.90;9.30;98267.00;;;;5071826;28;20291;-62
2021/10/24 10:36:23;;;;;;;3.63;2.70;;;9.10;99.90;9.40;98266.00;;;;5069647;28;20253;-62
2021/10/24 10:39:42;;;;;;;5.83;3.20;;;9.20;99.90;9.70;98259.00;;;;5066242;28;20208;-62
2021/10/24 10:43:04;;;;;;;5.10;2.77;;;9.30;99.90;9.90;98278.00;;;;5064534;28;20218;-63
2021/10/24 10:45:55;;;;;;;4.53;3.10;;;9.50;99.90;10.00;98268.00;;;;5072450;28;20208;-64
2021/10/24 10:48:46;;;;;;;7.13;3.00;;;9.60;99.90;10.10;98278.00;;;;5070418;28;20223;-62
2021/10/24 10:51:35;;;;;;;6.63;3.40;;;9.80;99.90;10.40;98267.00;;;;5087715;28;20219;-64
2021/10/24 10:54:24;;;;;;;12.30;3.57;;;9.90;99.90;10.50;98261.00;;;;5082722;28;20204;-62
2021/10/24 10:57:29;;;;;;;5.53;3.00;;;10.10;99.90;10.40;98246.00;;;;5066286;28;20211;-64
2021/10/24 11:00:36;;;;;;;5.80;3.20;;;10.30;99.90;10.30;98246.00;;;;5072293;28;20230;-64
2021/10/24 11:03:44;;;;;;;6.63;2.57;;;10.40;99.90;10.50;98258.00;;;;5081759;28;20249;-64
2021/10/24 11:07:00;;;;;;;5.80;2.87;;;10.50;99.90;10.60;98248.00;;;;5067314;28;20320;-62
2021/10/24 11:09:49;;;;;;;9.27;3.70;;;10.50;99.90;10.90;98255.00;;;;5038106;28;20204;-64
2021/10/24 11:12:49;;;;;;;6.33;3.03;;;10.50;99.90;10.80;98257.00;;;;5071175;28;20223;-64
2021/10/24 11:15:39;;;;;;;8.53;3.57;;;10.70;99.90;10.90;98255.00;;;;5063000;28;20204;-63
2021/10/24 11:18:32;;;;;;;6.37;3.80;;;10.70;99.90;10.80;98250.00;;;;5068930;28;20218;-63
2021/10/24 11:21:26;;;;;;;10.20;3.43;;;10.80;99.90;9.70;98240.00;;;;5076546;28;20227;-63
2021/10/24 11:24:16;;;;;;;4.67;3.50;;;10.70;99.90;9.40;98234.00;;;;5086520;28;20214;-64
2021/10/24 11:27:08;;;;;;;5.13;3.20;;;10.40;99.90;9.50;98230.00;;;;5074464;28;20215;-64
2021/10/24 11:29:58;;;;;;;6.50;3.80;;;10.10;99.90;9.90;98238.00;;;;5077352;28;20200;-64
2021/10/24 11:32:55;;;;;;;3.20;2.90;;;10.00;99.90;10.30;98231.00;;;;5067649;28;20669;-63
2021/10/24 11:35:44;;;;;;;7.83;2.97;;;10.10;99.90;10.70;98228.00;;;;5078724;28;20663;-61
2021/10/24 11:38:33;;;;;;;8.67;3.57;;;10.20;99.90;11.00;98208.00;;;;5076302;28;20203;-64
2021/10/24 11:41:23;;;;;;;4.70;3.53;;;10.50;99.90;11.80;98210.00;;;;5070822;28;20705;-63
2021/10/24 11:44:12;;;;;;;3.47;2.83;;;10.90;99.90;12.30;98213.00;;;;5069320;28;20203;-65
2021/10/24 11:47:08;;;;;;;4.70;2.63;;;11.30;99.90;12.10;98206.00;;;;5067023;28;20612;-65
2021/10/24 11:49:59;;;;;;;5.53;2.83;;;11.70;99.90;12.40;98205.00;;;;5080695;28;20222;-64
2021/10/24 11:52:59;;;;;;;3.67;2.97;;;11.90;99.90;12.60;98194.00;;;;5070762;28;20208;-65
2021/10/24 11:55:51;;;;;;;4.10;3.17;;;12.30;99.90;12.40;98174.00;;;;5078438;28;20589;-65
2021/10/24 11:59:12;;;;;;;5.83;2.90;;;12.40;99.90;14.20;98156.00;;;;5067360;28;20302;-65
2021/10/24 12:02:08;;;;;;;6.03;2.83;;;12.90;99.90;13.70;98182.00;;;;5069888;28;20689;-65
2021/10/24 12:04:59;;;;;;;6.67;4.23;;;13.70;96.90;13.30;98183.00;;;;5071538;28;20290;-65
2021/10/24 12:07:52;;;;;;;4.23;2.57;;;13.60;94.90;13.70;98196.00;;;;5064826;28;20207;-64
2021/10/24 12:10:48;;;;;;;6.63;3.60;;;13.70;95.50;13.20;98197.00;;;;5074516;28;20219;-66
2021/10/24 12:13:38;;;;;;;3.90;3.00;;;13.60;94.70;13.30;98198.00;;;;5070980;28;20196;-66
2021/10/24 12:16:33;;;;;;;7.47;3.20;;;13.40;95.10;13.20;98192.00;;;;5066943;28;20191;-66
2021/10/24 12:19:29;;;;;;;5.00;3.00;;;13.30;95.60;12.70;98187.00;;;;5076361;28;20230;-65
2021/10/24 12:22:19;;;;;;;5.10;3.90;;;13.10;95.60;12.00;98186.00;;;;5079534;28;20249;-63
2021/10/24 12:25:12;;;;;;;5.17;3.30;;;12.90;94.00;11.70;98182.00;;;;5068164;28;20549;-65
2021/10/24 12:28:14;;;;;;;9.17;3.40;;;12.60;94.20;11.80;98167.00;;;;5073105;28;20203;-65
2021/10/24 12:31:07;;;;;;;8.67;2.83;;;12.20;95.10;12.10;98165.00;;;;5069408;28;20223;-65
2021/10/24 12:33:56;;;;;;;5.73;3.20;;;12.10;96.00;12.00;98168.00;;;;5070605;28;20697;-66
2021/10/24 12:36:45;;;;;;;5.13;3.50;;;12.00;96.90;11.70;98169.00;;;;5075719;28;20208;-65
2021/10/24 12:39:35;;;;;;;8.67;3.53;;;12.00;96.90;11.70;98162.00;;;;5081634;28;20678;-65
2021/10/24 12:42:24;;;;;;;5.80;3.63;;;11.90;96.60;11.50;98155.00;;;;5069318;28;20231;-65
2021/10/24 12:45:18;;;;;;;4.63;3.77;;;11.70;96.60;11.50;98162.00;;;;5086464;28;20196;-63
2021/10/24 12:48:07;;;;;;;5.20;3.70;;;11.60;96.70;11.70;98159.00;;;;5093682;28;20213;-63
2021/10/24 12:50:56;;;;;;;6.40;4.13;;;11.60;97.60;11.60;98153.00;;;;5081454;28;20231;-64
2021/10/24 12:53:45;;;;;;;5.90;3.33;;;11.60;98.00;11.30;98153.00;;;;5077007;28;20218;-65